Time;durP1;ratioP1;P1;durP2;ratioP2;P2;SDS_P1;SDS_P2;PMS_P1;PMS_P2;Temp;Humidity;BMP_temperature;BMP_pressure;BME280_temperature;BME280_humidity;BME280_pressure;Samples;Min_cycle;Max_cycle;Signal;HPM_P1;HPM_P2
2022/01/01 00:00:47;;;;;;;18.23;9.37;;;11.50;99.90;;;;;;4970695;28;20274;-63
2022/01/01 00:03:16;;;;;;;23.70;10.53;;;11.50;99.90;;;;;;4963924;28;20261;-63
2022/01/01 00:05:44;;;;;;;30.90;10.80;;;11.50;99.90;;;;;;4960486;28;20241;-63
2022/01/01 00:08:12;;;;;;;22.00;9.27;;;11.50;99.90;;;;;;4972363;28;20240;-63
2022/01/01 00:10:42;;;;;;;28.37;10.83;;;11.50;99.90;;;;;;4971955;28;20240;-63
2022/01/01 00:13:16;;;;;;;31.37;10.27;;;11.50;99.90;;;;;;4972285;28;20245;-63
2022/01/01 00:15:44;;;;;;;23.27;9.60;;;11.50;99.90;;;;;;4972141;28;20240;-63
2022/01/01 00:18:12;;;;;;;27.40;10.73;;;11.40;99.90;;;;;;4971575;28;20236;-63
2022/01/01 00:20:40;;;;;;;21.70;10.43;;;11.50;99.90;;;;;;4970807;28;20602;-63
2022/01/01 00:23:08;;;;;;;21.03;10.17;;;11.50;99.90;;;;;;4972291;28;20237;-63
2022/01/01 00:25:36;;;;;;;23.17;10.63;;;11.50;99.90;;;;;;4971979;28;20232;-63
2022/01/01 00:28:07;;;;;;;22.07;10.10;;;11.40;99.90;;;;;;4972202;28;20239;-63
2022/01/01 00:30:35;;;;;;;23.83;11.23;;;11.50;99.90;;;;;;4971775;28;20232;-63
2022/01/01 00:33:06;;;;;;;26.37;10.90;;;11.50;99.90;;;;;;4972005;28;20299;-63
2022/01/01 00:35:38;;;;;;;19.30;10.00;;;11.50;99.90;;;;;;1044707;28;10022874;-64
2022/01/01 00:38:06;;;;;;;22.03;10.03;;;11.40;99.90;;;;;;4967501;28;20444;-63
2022/01/01 00:40:34;;;;;;;21.07;10.03;;;11.50;99.90;;;;;;4971748;28;20753;-63
2022/01/01 00:43:03;;;;;;;23.90;10.40;;;11.50;99.90;;;;;;4971982;28;20594;-63
2022/01/01 00:45:32;;;;;;;22.60;11.17;;;11.50;99.90;;;;;;4971519;28;20240;-63
2022/01/01 00:48:00;;;;;;;20.57;9.23;;;11.50;99.90;;;;;;4971029;28;20263;-63
2022/01/01 00:50:28;;;;;;;19.03;9.60;;;11.50;99.90;;;;;;4971319;28;20244;-63
2022/01/01 00:53:01;;;;;;;19.90;10.27;;;11.50;99.90;;;;;;4971761;28;20272;-63
2022/01/01 00:55:30;;;;;;;19.10;10.23;;;11.50;99.90;;;;;;4970966;28;20654;-63
2022/01/01 00:57:58;;;;;;;20.33;9.90;;;11.50;99.90;;;;;;4971797;28;20244;-65
2022/01/01 01:00:28;;;;;;;20.67;10.60;;;11.50;99.90;;;;;;4971421;28;20247;-63
2022/01/01 01:02:58;;;;;;;25.10;11.60;;;11.50;99.90;;;;;;4972010;28;20233;-63
2022/01/01 01:05:27;;;;;;;23.27;10.57;;;11.50;99.90;;;;;;4970835;28;20244;-64
2022/01/01 01:07:55;;;;;;;25.80;11.57;;;11.40;99.90;;;;;;4967736;28;20245;-63
2022/01/01 01:10:23;;;;;;;21.83;11.33;;;11.40;99.90;;;;;;4963282;28;20294;-63
2022/01/01 01:12:53;;;;;;;20.90;11.33;;;11.40;99.90;;;;;;4975588;28;20244;-63
2022/01/01 01:15:21;;;;;;;22.27;11.17;;;11.40;99.90;;;;;;4975496;28;20249;-63
2022/01/01 01:17:51;;;;;;;28.23;11.83;;;11.40;99.90;;;;;;4974084;28;20236;-63
2022/01/01 01:20:21;;;;;;;23.37;11.60;;;11.40;99.90;;;;;;4975256;28;20235;-63
2022/01/01 01:22:49;;;;;;;25.80;11.57;;;11.40;99.90;;;;;;4975436;28;20650;-63
2022/01/01 01:25:19;;;;;;;21.30;10.63;;;11.40;99.90;;;;;;4975218;28;20407;-63
2022/01/01 01:27:49;;;;;;;22.67;11.20;;;11.40;99.90;;;;;;4975200;28;20244;-63
2022/01/01 01:30:18;;;;;;;24.87;11.63;;;11.40;99.90;;;;;;4974957;28;20244;-63
2022/01/01 01:32:47;;;;;;;23.27;11.00;;;11.40;99.90;;;;;;4973364;28;20307;-63
2022/01/01 01:35:16;;;;;;;23.37;11.23;;;11.40;99.90;;;;;;4973499;28;20240;-63
2022/01/01 01:37:45;;;;;;;27.03;12.40;;;11.40;99.90;;;;;;4973946;28;20256;-63
2022/01/01 01:40:13;;;;;;;28.83;13.00;;;11.40;99.90;;;;;;4962670;28;20245;-63
2022/01/01 01:42:43;;;;;;;26.07;12.07;;;11.40;99.90;;;;;;4974972;28;20245;-63
2022/01/01 01:45:16;;;;;;;28.40;12.90;;;11.40;99.90;;;;;;4975035;28;20244;-63
2022/01/01 01:47:45;;;;;;;33.07;13.90;;;11.40;99.90;;;;;;4975028;28;20279;-63
2022/01/01 01:50:14;;;;;;;23.90;12.03;;;11.40;99.90;;;;;;4974794;28;20241;-63
2022/01/01 01:52:50;;;;;;;30.03;12.90;;;11.40;99.90;;;;;;4974816;28;20319;-63
2022/01/01 01:55:18;;;;;;;25.60;12.87;;;11.40;99.90;;;;;;4974766;28;20326;-63
2022/01/01 01:57:46;;;;;;;32.57;14.77;;;11.40;99.90;;;;;;4974439;28;20691;-63
2022/01/01 02:00:36;;;;;;;25.97;13.13;;;11.30;99.90;;;;;;4974720;28;20720;-63
2022/01/01 02:03:09;;;;;;;24.23;12.73;;;11.40;99.90;;;;;;4974282;28;20241;-63
2022/01/01 02:05:38;;;;;;;25.53;13.10;;;11.40;99.90;;;;;;4973254;28;20239;-63
2022/01/01 02:08:08;;;;;;;29.37;14.30;;;11.40;99.90;;;;;;4967390;28;20246;-63
2022/01/01 02:10:36;;;;;;;25.40;13.27;;;11.40;99.90;;;;;;4963670;28;20330;-63
2022/01/01 02:13:11;;;;;;;25.80;13.20;;;11.40;99.90;;;;;;4974735;28;20329;-63
2022/01/01 02:15:47;;;;;;;26.40;13.50;;;11.50;99.90;;;;;;4969606;28;20698;-63
2022/01/01 02:18:15;;;;;;;35.63;14.57;;;11.40;99.90;;;;;;4974292;28;20252;-63
2022/01/01 02:20:49;;;;;;;28.60;14.80;;;11.40;99.90;;;;;;4974035;28;20240;-63
2022/01/01 02:23:18;;;;;;;28.80;14.63;;;11.50;99.90;;;;;;4974435;28;21851;-63
2022/01/01 02:25:49;;;;;;;25.30;13.63;;;11.50;99.90;;;;;;4974008;28;20252;-63
2022/01/01 02:28:17;;;;;;;32.70;15.10;;;11.50;99.90;;;;;;4974275;28;20245;-63
2022/01/01 02:30:46;;;;;;;28.30;14.67;;;11.50;99.90;;;;;;4973937;28;20244;-63
2022/01/01 02:33:14;;;;;;;31.80;14.63;;;11.60;99.90;;;;;;4974285;28;20586;-63
2022/01/01 02:35:42;;;;;;;33.38;16.48;;;11.50;99.90;;;;;;1292002;28;10023621;-64
2022/01/01 02:38:12;;;;;;;28.87;14.27;;;11.40;99.90;;;;;;4627228;28;10001333;-63
2022/01/01 02:40:41;;;;;;;29.70;14.37;;;11.50;99.90;;;;;;4966115;28;20240;-63
2022/01/01 02:43:09;;;;;;;32.70;15.73;;;11.50;99.90;;;;;;4973954;28;20328;-63
2022/01/01 02:45:37;;;;;;;29.37;14.27;;;11.50;99.90;;;;;;4973579;28;20244;-63
2022/01/01 02:48:05;;;;;;;36.03;15.80;;;11.50;99.90;;;;;;4973907;28;20246;-63
2022/01/01 02:50:34;;;;;;;28.33;15.43;;;11.50;99.90;;;;;;4973521;28;20260;-63
2022/01/01 02:53:02;;;;;;;33.70;15.50;;;11.50;99.90;;;;;;4973942;28;20240;-63
2022/01/01 02:55:31;;;;;;;33.50;15.87;;;11.40;99.90;;;;;;4973347;28;20247;-63
2022/01/01 02:58:01;;;;;;;30.10;14.97;;;11.50;99.90;;;;;;4973867;28;20732;-63
2022/01/01 03:00:29;;;;;;;31.37;16.40;;;11.40;99.90;;;;;;4973477;28;20243;-63
2022/01/01 03:02:57;;;;;;;28.23;15.73;;;11.50;99.90;;;;;;4973244;28;20305;-63
2022/01/01 03:05:27;;;;;;;31.67;16.13;;;11.40;99.90;;;;;;4972543;28;20259;-63
2022/01/01 03:07:55;;;;;;;29.10;15.30;;;11.40;99.90;;;;;;4960027;28;20241;-63
2022/01/01 03:10:23;;;;;;;30.73;15.97;;;11.50;99.90;;;;;;4961121;28;20236;-63
2022/01/01 03:12:52;;;;;;;31.23;15.97;;;11.50;99.90;;;;;;4973408;28;20275;-63
2022/01/01 03:15:21;;;;;;;26.37;16.07;;;11.50;99.90;;;;;;4973378;28;20232;-63
2022/01/01 03:17:49;;;;;;;31.43;15.83;;;11.40;99.90;;;;;;4973387;28;20574;-63
2022/01/01 03:20:17;;;;;;;28.67;15.77;;;11.40;99.90;;;;;;4973284;28;20316;-63
2022/01/01 03:22:45;;;;;;;34.40;16.13;;;11.40;99.90;;;;;;4973195;28;20343;-62
2022/01/01 03:25:13;;;;;;;28.77;16.23;;;11.50;99.90;;;;;;4973138;28;20287;-63
2022/01/01 03:27:41;;;;;;;32.30;17.83;;;11.50;99.90;;;;;;4972996;28;20237;-63
2022/01/01 03:30:11;;;;;;;36.30;17.93;;;11.50;99.90;;;;;;4972354;28;20571;-63
2022/01/01 03:32:39;;;;;;;29.53;16.77;;;11.50;99.90;;;;;;4972895;28;20246;-63
2022/01/01 03:35:08;;;;;;;31.83;16.50;;;11.50;99.90;;;;;;4971985;28;20332;-63
2022/01/01 03:37:36;;;;;;;35.50;17.30;;;11.50;99.90;;;;;;4972590;28;20243;-63
2022/01/01 03:40:05;;;;;;;35.10;18.70;;;11.50;99.90;;;;;;4972827;28;20240;-64
2022/01/01 03:42:34;;;;;;;40.27;19.93;;;11.50;99.90;;;;;;4972607;28;20272;-63
2022/01/01 03:45:02;;;;;;;37.73;18.57;;;11.50;99.90;;;;;;4972758;28;20248;-63
2022/01/01 03:47:32;;;;;;;37.47;19.80;;;11.50;99.90;;;;;;4972636;28;20248;-63
2022/01/01 03:50:00;;;;;;;34.13;19.67;;;11.50;99.90;;;;;;4972618;28;20241;-63
2022/01/01 03:52:28;;;;;;;38.63;20.03;;;11.50;99.90;;;;;;4972612;28;20256;-64
2022/01/01 03:54:56;;;;;;;40.43;21.50;;;11.50;99.90;;;;;;4972909;28;20323;-63
2022/01/01 03:57:24;;;;;;;38.40;19.53;;;11.50;99.90;;;;;;4972714;28;20696;-63
2022/01/01 03:59:52;;;;;;;38.93;21.30;;;11.50;99.90;;;;;;4972481;28;20270;-63
2022/01/01 04:02:20;;;;;;;39.17;20.43;;;11.50;99.90;;;;;;4972579;28;20238;-63
2022/01/01 04:04:50;;;;;;;42.07;19.83;;;11.50;99.90;;;;;;4970380;28;20267;-63
2022/01/01 04:07:18;;;;;;;38.77;20.23;;;11.50;99.90;;;;;;4964479;28;20247;-63
2022/01/01 04:09:46;;;;;;;38.40;20.90;;;11.50;99.90;;;;;;4972179;28;20291;-63
2022/01/01 04:12:14;;;;;;;36.60;21.50;;;11.50;99.90;;;;;;4972398;28;20236;-63
2022/01/01 04:14:43;;;;;;;38.63;21.47;;;11.50;99.90;;;;;;4972197;28;20245;-63
2022/01/01 04:17:11;;;;;;;36.63;20.63;;;11.50;99.90;;;;;;4972275;28;20244;-63
2022/01/01 04:19:39;;;;;;;40.57;21.37;;;11.50;99.90;;;;;;4972240;28;20291;-63
2022/01/01 04:22:10;;;;;;;40.27;22.27;;;11.50;99.90;;;;;;4972062;28;20239;-63
2022/01/01 04:24:40;;;;;;;40.23;21.00;;;11.50;99.90;;;;;;4972143;28;20248;-63
2022/01/01 04:27:09;;;;;;;39.67;22.17;;;11.50;99.90;;;;;;4971977;28;20236;-63
2022/01/01 04:29:38;;;;;;;42.80;23.03;;;11.50;99.90;;;;;;4971894;28;20606;-63
2022/01/01 04:32:09;;;;;;;38.93;21.23;;;11.50;99.90;;;;;;4971885;28;20620;-63
2022/01/01 04:34:56;;;;;;;34.46;20.72;;;11.50;99.90;;;;;;2611576;28;10003976;-63
2022/01/01 04:37:26;;;;;;;46.47;22.37;;;11.50;99.90;;;;;;3927289;28;10001411;-63
2022/01/01 04:39:59;;;;;;;38.93;23.63;;;11.40;99.90;;;;;;4953702;28;20476;-63
2022/01/01 04:42:28;;;;;;;40.50;21.70;;;11.50;99.90;;;;;;4970794;28;20263;-63
2022/01/01 04:44:56;;;;;;;39.80;21.83;;;11.50;99.90;;;;;;4971989;28;20244;-63
2022/01/01 04:47:24;;;;;;;38.33;21.00;;;11.50;99.90;;;;;;4972098;28;20593;-63
2022/01/01 04:49:52;;;;;;;42.70;21.30;;;11.40;99.90;;;;;;4971130;28;20232;-63
2022/01/01 04:52:20;;;;;;;45.93;21.93;;;11.50;99.90;;;;;;4970757;28;20565;-63
2022/01/01 04:54:50;;;;;;;43.40;20.60;;;11.50;99.90;;;;;;4954203;28;20284;-64
2022/01/01 04:57:18;;;;;;;42.27;21.80;;;11.50;99.90;;;;;;4971653;28;20239;-63
2022/01/01 04:59:46;;;;;;;38.97;22.00;;;11.50;99.90;;;;;;4971633;28;20318;-63
2022/01/01 05:02:14;;;;;;;48.30;20.43;;;11.50;99.90;;;;;;4971813;28;20294;-63
2022/01/01 05:04:42;;;;;;;36.37;20.93;;;11.50;99.90;;;;;;4970786;28;20243;-63
2022/01/01 05:07:11;;;;;;;35.57;20.20;;;11.50;99.90;;;;;;4971558;28;20248;-63
2022/01/01 05:09:39;;;;;;;39.03;20.83;;;11.50;99.90;;;;;;4971536;28;20247;-63
2022/01/01 05:12:09;;;;;;;42.67;20.43;;;11.50;99.90;;;;;;4971749;28;20332;-63
2022/01/01 05:14:37;;;;;;;36.43;19.10;;;11.50;99.90;;;;;;4970792;28;20251;-63
2022/01/01 05:17:05;;;;;;;38.43;20.30;;;11.50;99.90;;;;;;4971021;28;20240;-63
2022/01/01 05:19:34;;;;;;;38.50;19.27;;;11.50;99.90;;;;;;4960485;28;20245;-63
2022/01/01 05:22:02;;;;;;;36.70;19.47;;;11.50;99.90;;;;;;4970125;28;20315;-63
2022/01/01 05:24:30;;;;;;;39.90;19.97;;;11.40;99.90;;;;;;4971422;28;20270;-63
2022/01/01 05:26:59;;;;;;;40.83;20.17;;;11.40;99.90;;;;;;4971527;28;20245;-63
2022/01/01 05:29:29;;;;;;;39.87;19.00;;;11.40;99.90;;;;;;4971691;28;20244;-63
2022/01/01 05:31:57;;;;;;;42.73;20.77;;;11.40;99.90;;;;;;4969746;28;20240;-63
2022/01/01 05:34:25;;;;;;;36.13;18.97;;;11.40;99.90;;;;;;4971533;28;20327;-63
2022/01/01 05:36:54;;;;;;;39.03;19.20;;;11.40;99.90;;;;;;4971588;28;20331;-63
2022/01/01 05:39:23;;;;;;;38.90;17.33;;;11.40;99.90;;;;;;4971544;28;20275;-63
2022/01/01 05:41:54;;;;;;;40.23;19.43;;;11.40;99.90;;;;;;4971512;28;20243;-63
2022/01/01 05:44:22;;;;;;;34.70;18.47;;;11.40;99.90;;;;;;4970875;28;20240;-63
2022/01/01 05:46:53;;;;;;;35.47;17.57;;;11.40;99.90;;;;;;4965956;28;20237;-63
2022/01/01 05:49:22;;;;;;;43.07;18.20;;;11.40;99.90;;;;;;4969245;28;20585;-63
2022/01/01 05:51:50;;;;;;;37.73;18.13;;;11.40;99.90;;;;;;4970544;28;20240;-63
2022/01/01 05:54:20;;;;;;;38.80;17.93;;;11.40;99.90;;;;;;4973395;28;20235;-63
2022/01/01 05:56:48;;;;;;;39.73;17.27;;;11.40;99.90;;;;;;4974458;28;20235;-63
2022/01/01 05:59:16;;;;;;;35.53;17.43;;;11.40;99.90;;;;;;4974826;28;20247;-63
2022/01/01 06:01:44;;;;;;;36.00;17.50;;;11.40;99.90;;;;;;4974652;28;20658;-63
2022/01/01 06:04:14;;;;;;;36.53;18.07;;;11.40;99.90;;;;;;4974819;28;20237;-63
2022/01/01 06:06:46;;;;;;;34.73;16.53;;;11.40;99.90;;;;;;4974430;28;20792;-63
2022/01/01 06:09:15;;;;;;;34.77;17.30;;;11.40;99.90;;;;;;4974716;28;20240;-63
2022/01/01 06:11:43;;;;;;;35.20;17.67;;;11.40;99.90;;;;;;4974339;28;20775;-62
2022/01/01 06:14:11;;;;;;;34.43;16.33;;;11.40;99.90;;;;;;4974627;28;20232;-63
2022/01/01 06:16:39;;;;;;;39.53;18.33;;;11.40;99.90;;;;;;4974227;28;20294;-63
2022/01/01 06:19:07;;;;;;;40.50;17.47;;;11.30;99.90;;;;;;4973599;28;20608;-63
2022/01/01 06:21:36;;;;;;;38.97;16.03;;;11.40;99.90;;;;;;4969287;28;20318;-63
2022/01/01 06:24:05;;;;;;;37.10;16.70;;;11.40;99.90;;;;;;4974338;28;20577;-63
2022/01/01 06:26:38;;;;;;;35.80;16.33;;;11.40;99.90;;;;;;4974079;28;20276;-63
2022/01/01 06:29:06;;;;;;;44.00;18.60;;;11.40;99.90;;;;;;4974332;28;20243;-63
2022/01/01 06:31:34;;;;;;;35.03;16.43;;;11.40;99.90;;;;;;4973925;28;20240;-63
2022/01/01 06:34:03;;;;;;;43.13;18.07;;;11.40;99.90;;;;;;4974055;28;20232;-63
2022/01/01 06:36:32;;;;;;;42.13;19.17;;;11.40;99.90;;;;;;4973850;28;20660;-63
2022/01/01 06:39:01;;;;;;;38.63;17.87;;;11.40;99.90;;;;;;4974101;28;20244;-63
2022/01/01 06:41:29;;;;;;;38.37;18.27;;;11.40;99.90;;;;;;4973777;28;20790;-64
2022/01/01 06:43:57;;;;;;;40.43;18.43;;;11.40;99.90;;;;;;4973688;28;20241;-63
2022/01/01 06:46:25;;;;;;;47.90;19.63;;;11.40;99.90;;;;;;4972001;28;20236;-63
2022/01/01 06:48:54;;;;;;;39.27;18.47;;;11.40;99.90;;;;;;4954724;28;20234;-63
2022/01/01 06:51:22;;;;;;;41.97;19.10;;;11.40;99.90;;;;;;4969396;28;20319;-63
2022/01/01 06:53:50;;;;;;;41.93;20.40;;;11.40;99.90;;;;;;4972657;28;20237;-63
2022/01/01 06:56:19;;;;;;;46.33;19.07;;;11.40;99.90;;;;;;4972593;28;20803;-63
2022/01/01 06:58:47;;;;;;;40.37;20.83;;;11.40;99.90;;;;;;4973829;28;20684;-63
2022/01/01 07:01:15;;;;;;;49.33;21.77;;;11.40;99.90;;;;;;4972894;28;20248;-63
2022/01/01 07:03:44;;;;;;;48.33;21.80;;;11.40;99.90;;;;;;4973390;28;20239;-63
2022/01/01 07:06:12;;;;;;;45.40;21.23;;;11.40;99.90;;;;;;4972686;28;20323;-63
2022/01/01 07:08:40;;;;;;;51.80;22.20;;;11.40;99.90;;;;;;4973411;28;20327;-63
2022/01/01 07:11:08;;;;;;;46.67;21.43;;;11.40;99.90;;;;;;4973239;28;20294;-63
2022/01/01 07:13:38;;;;;;;43.40;21.27;;;11.30;99.90;;;;;;4972475;28;20236;-63
2022/01/01 07:16:06;;;;;;;47.60;21.67;;;11.40;99.90;;;;;;4970913;28;20244;-63
2022/01/01 07:18:34;;;;;;;42.33;21.60;;;11.40;99.90;;;;;;4972754;28;20238;-63
2022/01/01 07:21:02;;;;;;;47.30;22.30;;;11.30;99.90;;;;;;4972706;28;20769;-63
2022/01/01 07:23:30;;;;;;;43.97;21.00;;;11.30;99.90;;;;;;4972686;28;20286;-63
2022/01/01 07:25:58;;;;;;;44.73;20.80;;;11.30;99.90;;;;;;4973244;28;20241;-62
2022/01/01 07:28:27;;;;;;;47.43;21.67;;;11.30;99.90;;;;;;4973269;28;20744;-63
2022/01/01 07:30:56;;;;;;;46.37;21.67;;;11.40;99.90;;;;;;4973199;28;20260;-63
2022/01/01 07:33:24;;;;;;;42.30;22.17;;;11.40;99.90;;;;;;4973245;28;20248;-63
2022/01/01 07:35:53;;;;;;;43.67;22.63;;;11.40;99.90;;;;;;4973118;28;20247;-63
2022/01/01 07:38:22;;;;;;;48.33;23.30;;;11.40;99.90;;;;;;4973121;28;20243;-63
2022/01/01 07:40:50;;;;;;;49.30;23.10;;;11.40;99.90;;;;;;4972551;28;20239;-63
2022/01/01 07:43:20;;;;;;;51.10;23.77;;;11.40;99.90;;;;;;4971604;28;20279;-63
2022/01/01 07:45:48;;;;;;;52.17;23.83;;;11.40;99.90;;;;;;4972153;28;20700;-63
2022/01/01 07:48:18;;;;;;;52.90;25.07;;;11.40;99.90;;;;;;4972435;28;20232;-63
2022/01/01 07:50:46;;;;;;;50.03;23.17;;;11.40;99.90;;;;;;4971957;28;20240;-63
2022/01/01 07:53:14;;;;;;;46.83;23.83;;;11.40;99.90;;;;;;4969064;28;20243;-63
2022/01/01 07:55:42;;;;;;;54.23;23.57;;;11.40;99.90;;;;;;4971534;28;20657;-63
2022/01/01 07:58:10;;;;;;;53.63;23.13;;;11.40;99.90;;;;;;4972667;28;20236;-63
2022/01/01 08:00:38;;;;;;;52.97;24.47;;;11.40;99.90;;;;;;4972227;28;20728;-63
2022/01/01 08:03:06;;;;;;;48.13;24.03;;;11.40;99.90;;;;;;4972381;28;20605;-63
2022/01/01 08:05:36;;;;;;;42.93;24.03;;;11.40;99.90;;;;;;4969338;28;20319;-63
2022/01/01 08:08:05;;;;;;;47.90;23.33;;;11.40;99.90;;;;;;4971192;28;20232;-63
2022/01/01 08:10:34;;;;;;;51.43;24.10;;;11.40;99.90;;;;;;4971538;28;20764;-63
2022/01/01 08:13:03;;;;;;;46.20;23.47;;;11.40;99.90;;;;;;4971278;28;20247;-63
2022/01/01 08:15:32;;;;;;;55.43;24.27;;;11.40;99.90;;;;;;4965668;28;20288;-63
2022/01/01 08:18:02;;;;;;;52.73;24.10;;;11.50;99.90;;;;;;4965863;28;20258;-63
2022/01/01 08:20:39;;;;;;;55.07;24.23;;;11.50;99.90;;;;;;4963324;28;20297;-64
2022/01/01 08:23:08;;;;;;;50.43;25.30;;;11.50;99.90;;;;;;4963942;28;20240;-64
2022/01/01 08:25:36;;;;;;;47.53;25.33;;;11.50;99.90;;;;;;4964995;28;20295;-64
2022/01/01 08:28:06;;;;;;;54.63;26.07;;;11.60;99.90;;;;;;4966045;28;20237;-63
2022/01/01 08:30:35;;;;;;;52.07;24.10;;;11.60;99.90;;;;;;4966268;28;20253;-63
2022/01/01 08:33:03;;;;;;;47.27;25.63;;;11.60;99.90;;;;;;4966133;28;20239;-63
2022/01/01 08:35:33;;;;;;;60.73;27.13;;;11.60;99.90;;;;;;4965541;28;20245;-63
2022/01/01 08:38:04;;;;;;;50.17;26.67;;;11.60;99.90;;;;;;4966180;28;20268;-64
2022/01/01 08:40:33;;;;;;;56.00;28.13;;;11.60;99.90;;;;;;4966178;28;20304;-63
2022/01/01 08:43:02;;;;;;;53.40;27.00;;;11.60;99.90;;;;;;4965135;28;20232;-64
2022/01/01 08:45:34;;;;;;;54.67;28.03;;;11.60;99.90;;;;;;4965003;28;20253;-64
2022/01/01 08:48:03;;;;;;;61.50;28.20;;;11.60;99.90;;;;;;4966333;28;20644;-63
2022/01/01 08:50:31;;;;;;;59.13;29.40;;;11.60;99.90;;;;;;4965569;28;20239;-64
2022/01/01 08:52:59;;;;;;;64.03;32.53;;;11.60;99.90;;;;;;4965919;28;20248;-64
2022/01/01 08:55:29;;;;;;;66.57;33.60;;;11.60;99.90;;;;;;4964709;28;20243;-64
2022/01/01 08:57:58;;;;;;;55.37;31.90;;;11.60;99.90;;;;;;4965795;28;20326;-64
2022/01/01 09:00:46;;;;;;;69.57;35.07;;;11.60;99.90;;;;;;4965860;28;20236;-64
2022/01/01 09:03:14;;;;;;;60.87;32.67;;;11.60;99.90;;;;;;4964295;28;20248;-64
2022/01/01 09:05:43;;;;;;;70.83;35.50;;;11.60;99.90;;;;;;4965931;28;20290;-63
2022/01/01 09:08:32;;;;;;;67.50;35.00;;;11.60;99.90;;;;;;4965609;28;20248;-63
2022/01/01 09:11:01;;;;;;;69.00;36.00;;;11.60;99.90;;;;;;4964920;28;20244;-65
2022/01/01 09:13:30;;;;;;;73.30;35.93;;;11.60;99.90;;;;;;4964115;28;20327;-63
2022/01/01 09:15:58;;;;;;;66.10;36.80;;;11.60;99.90;;;;;;4965667;28;20338;-65
2022/01/01 09:18:26;;;;;;;78.60;38.87;;;11.60;99.90;;;;;;4965958;28;20891;-63
2022/01/01 09:20:55;;;;;;;69.93;37.67;;;11.60;99.90;;;;;;4964416;28;20243;-65
2022/01/01 09:23:27;;;;;;;83.13;41.93;;;11.60;99.90;;;;;;4964084;28;20248;-63
2022/01/01 09:25:55;;;;;;;79.97;40.77;;;11.60;99.90;;;;;;4965473;28;20244;-63
2022/01/01 09:28:25;;;;;;;88.13;44.20;;;11.60;99.90;;;;;;4966460;28;20287;-63
2022/01/01 09:30:53;;;;;;;72.17;42.47;;;11.60;99.90;;;;;;4968957;28;20235;-64
2022/01/01 09:33:21;;;;;;;84.93;43.13;;;11.50;99.90;;;;;;4967841;28;20278;-64
2022/01/01 09:35:49;;;;;;;80.97;45.40;;;11.50;99.90;;;;;;4968905;28;20741;-64
2022/01/01 09:38:17;;;;;;;82.33;45.03;;;11.50;99.90;;;;;;4971913;28;20796;-63
2022/01/01 09:40:46;;;;;;;92.23;47.70;;;11.60;99.90;;;;;;4974324;28;20305;-63
2022/01/01 09:43:15;;;;;;;89.30;45.70;;;11.50;99.90;;;;;;4973465;28;20246;-63
2022/01/01 09:45:45;;;;;;;82.80;47.77;;;11.50;99.90;;;;;;4973532;28;20237;-63
2022/01/01 09:48:14;;;;;;;91.47;48.43;;;11.60;99.90;;;;;;4973611;28;20322;-64
2022/01/01 09:50:46;;;;;;;86.83;48.73;;;11.50;99.90;;;;;;4973097;28;20292;-63
2022/01/01 09:53:14;;;;;;;95.87;51.03;;;11.50;99.90;;;;;;4973177;28;20332;-63
2022/01/01 09:55:42;;;;;;;97.80;49.60;;;11.50;99.90;;;;;;4972113;28;20720;-63
2022/01/01 09:58:11;;;;;;;82.77;46.40;;;11.50;99.90;;;;;;4974130;28;20244;-63
2022/01/01 10:00:39;;;;;;;82.97;45.90;;;11.50;99.90;;;;;;4961619;28;20713;-63
2022/01/01 10:03:13;;;;;;;73.53;40.90;;;11.40;99.90;;;;;;4974119;28;20240;-64
2022/01/01 10:05:57;;;;;;;77.17;41.97;;;11.50;99.90;;;;;;4966603;28;20253;-63
2022/01/01 10:08:25;;;;;;;71.97;39.10;;;11.50;99.90;;;;;;4972967;28;20232;-64
2022/01/01 10:10:55;;;;;;;71.30;39.13;;;11.50;99.90;;;;;;4972698;28;20236;-63
2022/01/01 10:13:36;;;;;;;66.67;37.63;;;11.50;99.90;;;;;;4974397;28;20705;-63
2022/01/01 10:16:06;;;;;;;63.87;36.53;;;11.40;99.90;;;;;;4972606;28;20272;-63
2022/01/01 10:18:37;;;;;;;64.00;37.43;;;11.40;99.90;;;;;;4973737;28;20327;-64
2022/01/01 10:21:08;;;;;;;59.77;35.23;;;11.50;99.90;;;;;;4972034;28;20230;-63
2022/01/01 10:23:37;;;;;;;65.27;35.00;;;11.50;99.90;;;;;;4967205;28;20239;-63
2022/01/01 10:29:13;;;;;;;57.00;33.43;;;11.60;99.90;;;;;;4970293;28;20766;-63
2022/01/01 10:31:55;;;;;;;59.00;33.90;;;11.60;99.90;;;;;;4972696;28;20236;-63
2022/01/01 10:34:27;;;;;;;59.87;32.97;;;11.70;99.90;;;;;;4972193;28;20291;-63
2022/01/01 10:36:57;;;;;;;58.97;31.50;;;11.70;99.90;;;;;;4969989;28;20241;-63
2022/01/01 10:39:25;;;;;;;61.87;33.50;;;11.80;99.90;;;;;;4973527;28;20247;-63
2022/01/01 10:41:56;;;;;;;55.97;31.30;;;11.80;99.90;;;;;;4971036;28;20319;-63
2022/01/01 10:44:29;;;;;;;56.83;30.80;;;11.90;99.90;;;;;;4974026;28;20287;-63
2022/01/01 10:46:59;;;;;;;49.80;31.87;;;12.00;99.90;;;;;;4972636;28;20251;-63
2022/01/01 10:49:37;;;;;;;54.77;30.10;;;12.10;99.90;;;;;;4973331;28;20284;-62
2022/01/01 10:52:18;;;;;;;50.03;29.67;;;12.10;99.90;;;;;;4972415;28;20240;-64
2022/01/01 10:54:54;;;;;;;51.93;30.47;;;12.10;99.90;;;;;;4967750;28;20240;-63
2022/01/01 10:57:24;;;;;;;46.43;28.97;;;12.10;99.90;;;;;;4973335;28;20324;-63
2022/01/01 11:00:03;;;;;;;47.47;28.87;;;12.10;99.90;;;;;;4973096;28;20245;-63
2022/01/01 11:02:33;;;;;;;51.50;28.83;;;12.10;99.90;;;;;;4961215;28;20333;-63
2022/01/01 11:05:04;;;;;;;48.07;28.03;;;12.10;99.90;;;;;;4955971;28;20302;-63
2022/01/01 11:07:33;;;;;;;46.10;27.13;;;12.10;99.90;;;;;;4971894;28;20253;-63
2022/01/01 11:10:01;;;;;;;45.73;26.43;;;12.10;99.90;;;;;;4972946;28;20636;-63
2022/01/01 11:12:30;;;;;;;43.23;25.07;;;12.00;99.90;;;;;;4970884;28;20278;-60
2022/01/01 11:15:07;;;;;;;45.60;26.87;;;12.10;99.90;;;;;;4972912;28;20244;-60
2022/01/01 11:17:42;;;;;;;46.20;25.50;;;12.00;99.90;;;;;;4973200;28;20251;-60
2022/01/01 11:20:14;;;;;;;40.30;24.17;;;12.00;99.90;;;;;;4972334;28;20251;-61
2022/01/01 11:22:47;;;;;;;42.23;24.77;;;12.00;99.90;;;;;;4969620;28;20240;-61
2022/01/01 11:25:16;;;;;;;40.43;23.93;;;12.00;99.90;;;;;;4967216;28;20251;-61
2022/01/01 11:27:45;;;;;;;42.17;24.27;;;12.00;99.90;;;;;;4972103;28;20604;-60
2022/01/01 11:30:16;;;;;;;41.40;24.43;;;12.00;99.90;;;;;;4972237;28;20732;-61
2022/01/01 11:32:49;;;;;;;43.13;24.43;;;12.10;99.90;;;;;;4971452;28;20244;-60
2022/01/01 11:35:23;;;;;;;46.57;26.63;;;12.10;99.90;;;;;;4969844;28;20241;-60
2022/01/01 11:37:59;;;;;;;51.63;29.73;;;12.00;99.90;;;;;;4972935;28;20232;-60
2022/01/01 11:40:32;;;;;;;48.63;26.47;;;12.00;99.90;;;;;;4972934;28;20245;-61
2022/01/01 11:43:01;;;;;;;49.40;25.57;;;12.00;99.90;;;;;;4971997;28;20271;-61
2022/01/01 11:45:44;;;;;;;45.63;25.00;;;12.10;99.90;;;;;;4972906;28;20251;-60
2022/01/01 11:48:32;;;;;;;45.23;25.93;;;12.10;99.90;;;;;;4972758;28;20244;-61
2022/01/01 11:51:38;;;;;;;44.80;26.33;;;12.20;99.90;;;;;;4970731;28;20245;-60
2022/01/01 11:54:24;;;;;;;46.40;25.03;;;12.20;99.90;;;;;;4968442;28;20240;-60
2022/01/01 11:57:11;;;;;;;44.80;25.57;;;12.20;99.90;;;;;;4971400;28;20252;-61
2022/01/01 12:00:00;;;;;;;44.57;26.53;;;12.20;99.90;;;;;;4971653;28;20235;-60
2022/01/01 12:02:49;;;;;;;41.10;25.33;;;12.30;99.90;;;;;;4968276;28;20642;-61
2022/01/01 12:05:31;;;;;;;41.03;24.37;;;12.30;99.90;;;;;;4971278;28;20246;-60
2022/01/01 12:08:01;;;;;;;41.63;25.30;;;12.30;99.90;;;;;;4970968;28;20264;-60
2022/01/01 12:10:37;;;;;;;41.27;24.97;;;12.30;99.90;;;;;;4971617;28;20240;-61
2022/01/01 12:13:07;;;;;;;39.43;24.63;;;12.30;99.90;;;;;;4966202;28;20669;-60
2022/01/01 12:15:44;;;;;;;40.83;24.27;;;12.40;99.90;;;;;;4970911;28;20229;-61
2022/01/01 12:18:13;;;;;;;42.90;25.30;;;12.40;99.90;;;;;;4970301;28;20236;-60
2022/01/01 12:20:46;;;;;;;42.77;24.63;;;12.40;99.90;;;;;;4970717;28;20238;-60
2022/01/01 12:23:17;;;;;;;39.07;23.77;;;12.30;99.90;;;;;;4969348;28;20303;-60
2022/01/01 12:25:47;;;;;;;42.63;24.70;;;12.40;99.90;;;;;;4969133;28;20240;-60
2022/01/01 12:28:18;;;;;;;43.30;25.47;;;12.40;99.90;;;;;;4971849;28;20736;-60
2022/01/01 12:30:48;;;;;;;43.47;25.57;;;12.40;99.90;;;;;;4969430;28;20245;-60
2022/01/01 12:33:50;;;;;;;42.20;25.30;;;12.40;99.90;;;;;;4969078;28;20236;-60
2022/01/01 12:36:20;;;;;;;45.73;24.80;;;12.40;99.90;;;;;;4971194;28;20241;-60
2022/01/01 12:38:49;;;;;;;47.70;26.03;;;12.40;99.90;;;;;;4971316;28;20269;-61
2022/01/01 12:41:21;;;;;;;41.73;25.97;;;12.40;99.90;;;;;;4970889;28;20236;-61
2022/01/01 12:43:52;;;;;;;45.50;24.63;;;12.40;99.90;;;;;;4970118;28;20643;-60